createdAt,value
2018-07-23T00:00:25.421Z,85.49
2018-07-23T00:01:25.282Z,85.58
2018-07-23T00:02:25.296Z,85.68
2018-07-23T00:03:25.307Z,85.97
2018-07-23T00:04:25.325Z,86.07
2018-07-23T00:05:25.480Z,85.97
2018-07-23T00:06:25.344Z,86.35
2018-07-23T00:07:25.342Z,87.12
2018-07-23T00:08:25.902Z,87.21
2018-07-23T00:09:25.387Z,86.74
2018-07-23T00:10:25.400Z,86.35
2018-07-23T00:11:25.560Z,86.07
2018-07-23T00:12:25.421Z,86.54
2018-07-23T00:13:25.440Z,86.07
2018-07-23T00:14:25.430Z,86.45
2018-07-23T00:15:25.442Z,86.83
2018-07-23T00:16:25.476Z,86.83
2018-07-23T00:17:25.618Z,86.83
2018-07-23T00:18:25.497Z,86.83
2018-07-23T00:19:25.513Z,87.12
2018-07-23T00:20:25.529Z,87.21
2018-07-23T00:21:25.522Z,87.02
2018-07-23T00:22:25.701Z,86.93
2018-07-23T00:23:25.561Z,86.83
2018-07-23T00:24:25.560Z,86.35
2018-07-23T00:25:25.581Z,85.97
2018-07-23T00:26:25.598Z,85.58
2018-07-23T00:27:25.761Z,85.68
2018-07-23T00:28:25.623Z,85.78
2018-07-23T00:29:25.635Z,85.58
2018-07-23T00:30:25.653Z,85.21
2018-07-23T00:31:25.662Z,85.11
2018-07-23T00:32:25.830Z,85.11
2018-07-23T00:33:25.691Z,85.21
2018-07-23T00:34:25.681Z,84.72
2018-07-23T00:35:25.709Z,85.21
2018-07-23T00:36:25.730Z,84.91
2018-07-23T00:37:25.883Z,85.01
2018-07-23T00:38:25.749Z,85.11
2018-07-23T00:39:25.742Z,84.82
2018-07-23T00:40:25.778Z,85.58
2018-07-23T00:41:25.769Z,85.01
2018-07-23T00:42:25.946Z,85.01
2018-07-23T00:43:25.808Z,84.91
2018-07-23T00:44:25.821Z,85.11
2018-07-23T00:45:25.837Z,85.78
2018-07-23T00:46:25.827Z,85.58
2018-07-23T00:47:26.113Z,85.97
2018-07-23T00:48:25.873Z,85.97
2018-07-23T00:49:25.916Z,85.58
2018-07-23T00:50:25.885Z,85.49
2018-07-23T00:51:25.910Z,85.68
2018-07-23T00:52:26.075Z,86.07
2018-07-23T00:53:25.941Z,85.49
2018-07-23T00:54:25.947Z,85.68
2018-07-23T00:55:25.967Z,85.97
2018-07-23T00:56:26.510Z,86.35
2018-07-23T00:57:26.089Z,86.16
2018-07-23T00:58:26.005Z,87.02
2018-07-23T00:59:26.018Z,87.12
2018-07-23T01:00:26.003Z,86.83
2018-07-23T01:01:26.041Z,87.02
2018-07-23T01:02:26.156Z,87.74
2018-07-23T01:03:26.067Z,87.46
2018-07-23T01:04:26.081Z,87.50
2018-07-23T01:05:26.086Z,87.55
2018-07-23T01:06:26.105Z,88.37
2018-07-23T01:07:26.217Z,87.98
2018-07-23T01:08:26.128Z,88.03
2018-07-23T01:09:26.120Z,88.27
2018-07-23T01:10:26.155Z,88.32
2018-07-23T01:11:26.164Z,88.13
2018-07-23T01:12:26.411Z,88.51
2018-07-23T01:13:26.196Z,88.32
2018-07-23T01:14:26.204Z,89.28
2018-07-23T01:15:26.213Z,89.09
2018-07-23T01:16:26.225Z,88.99
2018-07-23T01:17:26.392Z,88.99
2018-07-23T01:18:26.250Z,89.86
2018-07-23T01:19:26.266Z,89.86
2018-07-23T01:20:26.281Z,89.95
2018-07-23T01:21:26.272Z,90.23
2018-07-23T01:22:26.406Z,89.95
2018-07-23T01:23:26.322Z,89.95
2018-07-23T01:24:26.330Z,89.86
2018-07-23T01:25:26.346Z,89.66
2018-07-23T01:26:26.360Z,89.66
2018-07-23T01:27:26.493Z,89.57
2018-07-23T01:28:26.380Z,89.57
2018-07-23T01:29:26.387Z,89.76
2018-07-23T01:30:26.404Z,89.76
2018-07-23T01:31:26.412Z,90.05
2018-07-23T01:32:26.427Z,89.66
2018-07-23T01:33:26.591Z,89.66
2018-07-23T01:34:26.436Z,89.57
2018-07-23T01:35:26.463Z,89.95
2018-07-23T01:36:26.473Z,89.76
2018-07-23T01:37:26.486Z,89.76
2018-07-23T01:38:26.654Z,89.86
2018-07-23T01:39:26.514Z,89.57
2018-07-23T01:40:26.530Z,89.47
2018-07-23T01:41:26.523Z,89.66
2018-07-23T01:42:26.556Z,89.66
2018-07-23T01:43:26.643Z,89.66
2018-07-23T01:44:26.584Z,89.66
2018-07-23T01:45:26.584Z,90.23
2018-07-23T01:46:26.603Z,89.76
2018-07-23T01:47:26.596Z,90.43
2018-07-23T01:48:26.722Z,90.33
2018-07-23T01:49:26.642Z,90.81
2018-07-23T01:50:26.657Z,90.81
2018-07-23T01:51:26.660Z,90.23
2018-07-23T01:52:26.677Z,90.43
2018-07-23T01:53:26.785Z,90.23
2018-07-23T01:54:26.708Z,89.95
2018-07-23T01:55:26.699Z,90.72
2018-07-23T01:56:26.721Z,90.05
2018-07-23T01:57:26.745Z,90.23
2018-07-23T01:58:26.855Z,90.62
2018-07-23T01:59:26.762Z,90.72
2018-07-23T02:00:26.752Z,91.00
2018-07-23T02:01:26.790Z,90.72
2018-07-23T02:02:26.796Z,90.53
2018-07-23T02:03:27.067Z,90.23
2018-07-23T02:04:26.806Z,91.67
2018-07-23T02:05:26.838Z,91.10
2018-07-23T02:06:26.848Z,91.00
2018-07-23T02:07:26.846Z,91.00
2018-07-23T02:08:27.033Z,90.72
2018-07-23T02:09:26.894Z,90.53
2018-07-23T02:10:27.089Z,91.00
2018-07-23T02:11:26.912Z,90.43
2018-07-23T02:12:26.934Z,90.33
2018-07-23T02:13:27.039Z,90.14
2018-07-23T02:14:26.950Z,90.23
2018-07-23T02:15:26.957Z,90.33
2018-07-23T02:16:26.975Z,90.53
2018-07-23T02:17:26.991Z,90.23
2018-07-23T02:18:27.157Z,90.43
2018-07-23T02:19:27.015Z,90.05
2018-07-23T02:20:27.023Z,90.33
2018-07-23T02:21:27.036Z,89.86
2018-07-23T02:22:27.050Z,90.53
2018-07-23T02:23:27.221Z,90.33
2018-07-23T02:24:27.076Z,89.66
2018-07-23T02:25:27.082Z,88.99
2018-07-23T02:26:27.094Z,88.70
2018-07-23T02:27:27.116Z,88.23
2018-07-23T02:28:27.224Z,87.46
2018-07-23T02:29:27.136Z,87.74
2018-07-23T02:30:27.151Z,87.46
2018-07-23T02:31:27.163Z,87.74
2018-07-23T02:32:27.173Z,87.74
2018-07-23T02:33:27.289Z,87.55
2018-07-23T02:34:27.182Z,87.74
2018-07-23T02:35:27.210Z,87.74
2018-07-23T02:36:27.208Z,87.55
2018-07-23T02:37:27.241Z,87.46
2018-07-23T02:38:27.400Z,88.32
2018-07-23T02:39:27.239Z,88.32
2018-07-23T02:40:27.274Z,88.80
2018-07-23T02:41:27.289Z,89.09
2018-07-23T02:42:27.295Z,88.90
2018-07-23T02:43:27.445Z,89.09
2018-07-23T02:44:27.321Z,88.42
2018-07-23T02:45:27.340Z,89.18
2018-07-23T02:46:27.343Z,89.18
2018-07-23T02:47:27.360Z,88.80
2018-07-23T02:48:27.359Z,89.66
2018-07-23T02:49:27.539Z,91.49
2018-07-23T02:50:27.411Z,90.81
2018-07-23T02:51:27.416Z,90.62
2018-07-23T02:52:27.423Z,90.43
2018-07-23T02:53:27.443Z,90.23
2018-07-23T02:54:27.458Z,90.14
2018-07-23T02:55:27.616Z,90.14
2018-07-23T02:56:27.483Z,90.33
2018-07-23T02:57:27.462Z,90.33
2018-07-23T02:58:27.502Z,90.23
2018-07-23T02:59:27.516Z,90.05
2018-07-23T03:00:27.774Z,90.23
2018-07-23T03:01:27.534Z,91.00
2018-07-23T03:02:27.554Z,90.72
2018-07-23T03:03:27.563Z,91.19
2018-07-23T03:04:27.578Z,91.10
2018-07-23T03:05:27.683Z,91.10
2018-07-23T03:06:27.574Z,92.15
2018-07-23T03:07:27.609Z,91.29
2018-07-23T03:08:27.624Z,91.00
2018-07-23T03:09:27.627Z,91.00
2018-07-23T03:10:27.798Z,90.91
2018-07-23T03:11:27.660Z,91.19
2018-07-23T03:12:27.671Z,91.39
2018-07-23T03:13:27.690Z,91.10
2018-07-23T03:14:27.700Z,90.91
2018-07-23T03:15:27.813Z,90.81
2018-07-23T03:16:27.724Z,91.00
2018-07-23T03:17:27.733Z,90.62
2018-07-23T03:18:27.755Z,91.00
2018-07-23T03:19:27.759Z,90.33
2018-07-23T03:20:27.920Z,90.14
2018-07-23T03:21:27.778Z,89.95
2018-07-23T03:22:27.799Z,89.66
2018-07-23T03:23:27.790Z,89.66
2018-07-23T03:24:27.819Z,89.57
2018-07-23T03:25:27.978Z,89.66
2018-07-23T03:26:27.845Z,89.66
2018-07-23T03:27:27.842Z,89.76
2018-07-23T03:28:27.873Z,89.86
2018-07-23T03:29:27.879Z,89.66
2018-07-23T03:30:27.989Z,89.86
2018-07-23T03:31:27.911Z,89.09
2018-07-23T03:32:27.923Z,89.18
2018-07-23T03:33:27.931Z,89.18
2018-07-23T03:34:27.944Z,88.70
2018-07-23T03:35:28.102Z,88.51
2018-07-23T03:36:27.952Z,88.32
2018-07-23T03:37:27.981Z,87.74
2018-07-23T03:38:27.998Z,88.03
2018-07-23T03:39:28.008Z,87.84
2018-07-23T03:40:28.164Z,87.46
2018-07-23T03:41:28.014Z,87.74
2018-07-23T03:42:28.041Z,87.37
2018-07-23T03:43:28.059Z,87.65
2018-07-23T03:44:28.056Z,87.37
2018-07-23T03:45:28.217Z,87.74
2018-07-23T03:46:28.092Z,88.13
2018-07-23T03:47:28.104Z,88.03
2018-07-23T03:48:28.121Z,87.94
2018-07-23T03:49:28.134Z,87.84
2018-07-23T03:50:28.295Z,88.23
2018-07-23T03:51:28.156Z,88.42
2018-07-23T03:52:28.167Z,88.32
2018-07-23T03:53:28.182Z,88.51
2018-07-23T03:54:28.196Z,88.42
2018-07-23T03:55:28.352Z,88.51
2018-07-23T03:56:28.221Z,88.61
2018-07-23T03:57:28.230Z,88.51
2018-07-23T03:58:28.238Z,88.32
2018-07-23T03:59:28.256Z,88.51
2018-07-23T04:00:28.346Z,88.61
2018-07-23T04:01:28.258Z,88.23
2018-07-23T04:02:28.270Z,88.42
2018-07-23T04:03:28.329Z,88.70
2018-07-23T04:04:28.323Z,88.42
2018-07-23T04:05:28.429Z,88.23
2018-07-23T04:06:28.347Z,88.23
2018-07-23T04:07:28.360Z,88.23
2018-07-23T04:08:28.366Z,88.23
2018-07-23T04:09:28.388Z,88.51
2018-07-23T04:10:28.393Z,88.51
2018-07-23T04:11:28.556Z,88.32
2018-07-23T04:12:28.424Z,88.32
2018-07-23T04:13:28.413Z,88.80
2018-07-23T04:14:28.438Z,88.23
2018-07-23T04:15:28.442Z,88.80
2018-07-23T04:16:28.722Z,88.90
2018-07-23T04:17:28.490Z,89.09
2018-07-23T04:18:28.494Z,89.18
2018-07-23T04:19:28.488Z,89.86
2018-07-23T04:20:28.520Z,89.57
2018-07-23T04:21:28.625Z,90.33
2018-07-23T04:22:28.523Z,89.95
2018-07-23T04:23:28.561Z,90.62
2018-07-23T04:24:28.572Z,90.81
2018-07-23T04:25:28.578Z,91.10
2018-07-23T04:26:28.700Z,91.39
2018-07-23T04:27:28.609Z,91.58
2018-07-23T04:28:28.599Z,91.29
2018-07-23T04:29:28.631Z,91.58
2018-07-23T04:30:28.637Z,91.29
2018-07-23T04:31:28.754Z,91.19
2018-07-23T04:32:28.662Z,91.67
2018-07-23T04:33:28.656Z,91.29
2018-07-23T04:34:28.690Z,91.96
2018-07-23T04:35:28.700Z,91.86
2018-07-23T04:36:28.866Z,91.77
2018-07-23T04:37:28.726Z,91.77
2018-07-23T04:38:28.744Z,92.25
2018-07-23T04:39:28.732Z,92.73
2018-07-23T04:40:28.750Z,92.44
2018-07-23T04:41:28.931Z,92.44
2018-07-23T04:42:28.769Z,93.02
2018-07-23T04:43:28.807Z,92.78
2018-07-23T04:44:28.835Z,93.49
2018-07-23T04:45:28.826Z,93.69
2018-07-23T04:46:28.958Z,93.98
2018-07-23T04:47:28.850Z,94.02
2018-07-23T04:48:28.870Z,94.02
2018-07-23T04:49:28.889Z,94.12
2018-07-23T04:50:28.920Z,94.31
2018-07-23T04:51:29.052Z,94.21
2018-07-23T04:52:28.912Z,94.21
2018-07-23T04:53:28.925Z,94.12
2018-07-23T04:54:28.937Z,94.89
2018-07-23T04:55:28.954Z,94.12
2018-07-23T04:56:29.114Z,94.69
2018-07-23T04:57:28.981Z,94.79
2018-07-23T04:58:28.987Z,94.98
2018-07-23T04:59:28.998Z,94.69
2018-07-23T05:00:29.013Z,95.46
2018-07-23T05:01:29.174Z,96.03
2018-07-23T05:02:29.037Z,95.36
2018-07-23T05:03:29.046Z,95.56
2018-07-23T05:04:29.062Z,95.65
2018-07-23T05:05:29.072Z,95.65
2018-07-23T05:06:29.332Z,95.46
2018-07-23T05:07:29.097Z,95.56
2018-07-23T05:08:29.110Z,95.84
2018-07-23T05:09:29.121Z,96.13
2018-07-23T05:10:29.142Z,95.84
2018-07-23T05:11:29.292Z,95.75
2018-07-23T05:12:29.162Z,96.13
2018-07-23T05:13:29.169Z,96.51
2018-07-23T05:14:29.182Z,96.51
2018-07-23T05:15:29.203Z,96.32
2018-07-23T05:16:29.290Z,96.70
2018-07-23T05:17:29.220Z,97.09
2018-07-23T05:18:29.236Z,96.89
2018-07-23T05:19:29.247Z,96.80
2018-07-23T05:20:29.254Z,97.28
2018-07-23T05:21:29.422Z,96.80
2018-07-23T05:22:29.285Z,96.89
2018-07-23T05:23:29.272Z,96.70
2018-07-23T05:24:29.343Z,96.70
2018-07-23T05:25:29.316Z,96.80
2018-07-23T05:26:29.482Z,97.09
2018-07-23T05:27:29.343Z,97.18
2018-07-23T05:28:29.355Z,96.80
2018-07-23T05:29:29.367Z,96.80
2018-07-23T05:30:29.373Z,96.80
2018-07-23T05:31:29.390Z,96.51
2018-07-23T05:32:29.500Z,96.89
2018-07-23T05:33:29.420Z,96.32
2018-07-23T05:34:29.427Z,96.99
2018-07-23T05:35:29.437Z,96.70
2018-07-23T05:36:29.431Z,96.80
2018-07-23T05:37:29.591Z,96.42
2018-07-23T05:38:29.511Z,95.75
2018-07-23T05:39:29.490Z,95.75
2018-07-23T05:40:29.495Z,95.27
2018-07-23T05:41:29.507Z,96.18
2018-07-23T05:42:29.680Z,95.60
2018-07-23T05:43:29.538Z,94.84
2018-07-23T05:44:29.546Z,95.03
2018-07-23T05:45:29.563Z,94.45
2018-07-23T05:46:29.576Z,93.98
2018-07-23T05:47:29.833Z,94.07
2018-07-23T05:48:29.602Z,94.45
2018-07-23T05:49:29.611Z,94.17
2018-07-23T05:50:29.620Z,94.07
2018-07-23T05:51:29.637Z,93.59
2018-07-23T05:52:29.733Z,93.69
2018-07-23T05:53:29.666Z,93.78
2018-07-23T05:54:29.676Z,93.78
2018-07-23T05:55:29.683Z,93.59
2018-07-23T05:56:29.702Z,93.88
2018-07-23T05:57:29.854Z,93.49
2018-07-23T05:58:29.728Z,93.02
2018-07-23T05:59:29.711Z,93.78
2018-07-23T06:00:29.750Z,93.69
2018-07-23T06:01:29.763Z,93.78
2018-07-23T06:02:29.847Z,93.78
2018-07-23T06:03:29.832Z,94.07
2018-07-23T06:04:29.798Z,94.26
2018-07-23T06:05:29.789Z,94.84
2018-07-23T06:06:29.835Z,95.03
2018-07-23T06:07:29.935Z,94.64
2018-07-23T06:08:29.848Z,94.26
2018-07-23T06:09:29.863Z,94.26
2018-07-23T06:10:29.872Z,93.98
2018-07-23T06:11:29.885Z,93.69
2018-07-23T06:12:30.053Z,93.21
2018-07-23T06:13:29.914Z,93.40
2018-07-23T06:14:29.920Z,93.30
2018-07-23T06:15:29.939Z,92.82
2018-07-23T06:16:29.944Z,93.02
2018-07-23T06:17:30.107Z,93.30
2018-07-23T06:18:29.968Z,92.35
2018-07-23T06:19:29.980Z,92.44
2018-07-23T06:20:29.977Z,91.96
2018-07-23T06:21:30.010Z,92.25
2018-07-23T06:22:30.114Z,92.25
2018-07-23T06:23:30.036Z,91.39
2018-07-23T06:24:30.049Z,91.77
2018-07-23T06:25:30.056Z,91.77
2018-07-23T06:26:30.076Z,91.49
2018-07-23T06:27:30.232Z,91.58
2018-07-23T06:28:30.093Z,92.25
2018-07-23T06:29:30.104Z,91.96
2018-07-23T06:30:30.120Z,91.96
2018-07-23T06:31:30.128Z,92.06
2018-07-23T06:32:30.294Z,91.39
2018-07-23T06:33:30.142Z,91.29
2018-07-23T06:34:30.154Z,91.29
2018-07-23T06:35:30.185Z,91.49
2018-07-23T06:36:30.180Z,91.96
2018-07-23T06:37:30.407Z,92.15
2018-07-23T06:38:30.225Z,92.35
2018-07-23T06:39:30.227Z,92.35
2018-07-23T06:40:30.243Z,92.15
2018-07-23T06:41:30.255Z,92.35
2018-07-23T06:42:30.415Z,91.96
2018-07-23T06:43:30.264Z,91.96
2018-07-23T06:44:30.295Z,92.15
2018-07-23T06:45:30.308Z,92.25
2018-07-23T06:46:30.378Z,92.44
2018-07-23T06:47:30.331Z,92.25
2018-07-23T06:48:30.444Z,92.25
2018-07-23T06:49:30.334Z,92.54
2018-07-23T06:50:30.577Z,92.82
2018-07-23T06:51:30.388Z,92.92
2018-07-23T06:52:30.394Z,92.92
2018-07-23T06:53:30.554Z,93.21
2018-07-23T06:54:30.423Z,93.40
2018-07-23T06:55:30.439Z,93.59
2018-07-23T06:56:30.443Z,93.11
2018-07-23T06:57:30.501Z,93.69
2018-07-23T06:58:30.595Z,93.59
2018-07-23T06:59:30.486Z,93.78
2018-07-23T07:00:30.504Z,93.78
2018-07-23T07:01:30.510Z,94.07
2018-07-23T07:02:30.517Z,94.07
2018-07-23T07:03:30.635Z,94.26
2018-07-23T07:04:30.522Z,93.78
2018-07-23T07:05:30.544Z,94.07
2018-07-23T07:06:30.652Z,93.69
2018-07-23T07:07:30.577Z,93.69
2018-07-23T07:08:30.744Z,93.69
2018-07-23T07:09:30.603Z,93.21
2018-07-23T07:10:30.620Z,93.21
2018-07-23T07:11:30.629Z,92.92
2018-07-23T07:12:30.648Z,92.49
2018-07-23T07:13:30.821Z,92.87
2018-07-23T07:14:30.672Z,92.20
2018-07-23T07:15:30.682Z,92.15
2018-07-23T07:16:30.673Z,92.35
2018-07-23T07:17:30.702Z,92.10
2018-07-23T07:18:30.977Z,92.35
2018-07-23T07:19:30.734Z,92.82
2018-07-23T07:20:30.724Z,93.02
2018-07-23T07:21:30.763Z,92.92
2018-07-23T07:22:30.768Z,93.40
2018-07-23T07:23:30.876Z,92.44
2018-07-23T07:24:30.792Z,91.58
2018-07-23T07:25:30.856Z,92.44
2018-07-23T07:26:30.814Z,91.10
2018-07-23T07:27:30.832Z,91.10
2018-07-23T07:28:30.992Z,91.67
2018-07-23T07:29:30.859Z,91.29
2018-07-23T07:30:30.871Z,91.10
2018-07-23T07:31:30.881Z,91.29
2018-07-23T07:32:30.893Z,91.10
2018-07-23T07:33:31.037Z,91.19
2018-07-23T07:34:30.900Z,91.19
2018-07-23T07:35:30.926Z,91.49
2018-07-23T07:36:30.945Z,91.29
2018-07-23T07:37:30.952Z,91.67
2018-07-23T07:38:31.065Z,91.39
2018-07-23T07:39:30.984Z,91.19
2018-07-23T07:40:30.997Z,90.91
2018-07-23T07:41:31.002Z,91.39
2018-07-23T07:42:31.019Z,91.39
2018-07-23T07:43:31.131Z,91.10
2018-07-23T07:44:31.056Z,92.15
2018-07-23T07:45:31.056Z,91.96
2018-07-23T07:46:31.072Z,92.44
2018-07-23T07:47:31.083Z,92.92
2018-07-23T07:48:31.194Z,93.49
2018-07-23T07:49:31.107Z,93.88
2018-07-23T07:50:31.125Z,94.45
2018-07-23T07:51:31.159Z,94.55
2018-07-23T07:52:31.146Z,94.74
2018-07-23T07:53:31.308Z,95.41
2018-07-23T07:54:31.163Z,95.31
2018-07-23T07:55:31.181Z,95.41
2018-07-23T07:56:31.190Z,96.08
2018-07-23T07:57:31.205Z,95.70
2018-07-23T07:58:31.321Z,96.37
2018-07-23T07:59:31.236Z,95.98
2018-07-23T08:00:31.246Z,96.37
2018-07-23T08:01:31.254Z,96.47
2018-07-23T08:02:31.276Z,96.66
2018-07-23T08:03:31.376Z,96.66
2018-07-23T08:04:31.292Z,96.94
2018-07-23T08:05:31.309Z,96.84
2018-07-23T08:06:31.323Z,96.84
2018-07-23T08:07:31.328Z,96.75
2018-07-23T08:08:31.364Z,96.94
2018-07-23T08:09:31.502Z,96.47
2018-07-23T08:10:31.342Z,96.75
2018-07-23T08:11:31.377Z,97.14
2018-07-23T08:12:31.406Z,96.94
2018-07-23T08:13:31.382Z,96.84
2018-07-23T08:14:31.551Z,96.47
2018-07-23T08:15:31.427Z,96.27
2018-07-23T08:16:31.438Z,96.66
2018-07-23T08:17:31.452Z,96.08
2018-07-23T08:18:31.465Z,96.18
2018-07-23T08:19:31.562Z,96.37
2018-07-23T08:20:31.484Z,96.27
2018-07-23T08:21:31.502Z,96.08
2018-07-23T08:22:31.513Z,96.37
2018-07-23T08:23:31.511Z,96.56
2018-07-23T08:24:31.639Z,96.47
2018-07-23T08:25:31.544Z,96.47
2018-07-23T08:26:31.563Z,96.18
2018-07-23T08:27:31.577Z,96.47
2018-07-23T08:28:31.582Z,96.47
2018-07-23T08:29:31.749Z,96.37
2018-07-23T08:30:31.610Z,96.47
2018-07-23T08:31:31.643Z,96.37
2018-07-23T08:32:31.633Z,96.56
2018-07-23T08:33:31.653Z,96.66
2018-07-23T08:34:31.810Z,96.47
2018-07-23T08:35:31.669Z,96.18
2018-07-23T08:36:31.684Z,95.79
2018-07-23T08:37:31.696Z,95.89
2018-07-23T08:38:31.767Z,95.41
2018-07-23T08:39:31.840Z,94.64
2018-07-23T08:40:31.733Z,94.93
2018-07-23T08:41:31.746Z,94.64
2018-07-23T08:42:31.756Z,94.45
2018-07-23T08:43:31.771Z,94.07
2018-07-23T08:44:31.931Z,93.88
2018-07-23T08:45:31.798Z,93.69
2018-07-23T08:46:31.788Z,93.98
2018-07-23T08:47:31.824Z,93.78
2018-07-23T08:48:31.835Z,93.69
2018-07-23T08:49:32.006Z,93.78
2018-07-23T08:50:31.857Z,94.07
2018-07-23T08:51:31.871Z,93.69
2018-07-23T08:52:31.893Z,93.49
2018-07-23T08:53:31.892Z,93.49
2018-07-23T08:54:32.056Z,93.69
2018-07-23T08:55:31.913Z,94.45
2018-07-23T08:56:31.915Z,94.26
2018-07-23T08:57:31.947Z,93.98
2018-07-23T08:58:31.941Z,95.03
2018-07-23T08:59:32.119Z,94.26
2018-07-23T09:00:31.977Z,94.35
2018-07-23T09:01:31.988Z,94.26
2018-07-23T09:02:32.008Z,94.35
2018-07-23T09:03:32.018Z,94.45
2018-07-23T09:04:32.185Z,94.26
2018-07-23T09:05:32.041Z,93.78
2018-07-23T09:06:32.057Z,93.78
2018-07-23T09:07:32.064Z,94.26
2018-07-23T09:08:32.186Z,93.69
2018-07-23T09:09:32.244Z,93.98
2018-07-23T09:10:32.104Z,93.88
2018-07-23T09:11:32.118Z,93.21
2018-07-23T09:12:32.126Z,93.30
2018-07-23T09:13:32.143Z,93.49
2018-07-23T09:14:32.251Z,93.40
2018-07-23T09:15:32.168Z,93.11
2018-07-23T09:16:32.178Z,93.30
2018-07-23T09:17:32.187Z,93.02
2018-07-23T09:18:32.199Z,91.49
2018-07-23T09:19:32.323Z,91.19
2018-07-23T09:20:32.232Z,90.14
2018-07-23T09:21:32.221Z,90.14
2018-07-23T09:22:32.257Z,90.53
2018-07-23T09:23:32.263Z,90.43
2018-07-23T09:24:32.527Z,90.43
2018-07-23T09:25:32.303Z,90.62
2018-07-23T09:26:32.301Z,89.86
2018-07-23T09:27:32.319Z,89.86
2018-07-23T09:28:32.325Z,89.09
2018-07-23T09:29:32.335Z,89.66
2018-07-23T09:30:32.505Z,88.42
2018-07-23T09:31:32.360Z,88.61
2018-07-23T09:32:32.376Z,88.90
2018-07-23T09:33:32.392Z,89.28
2018-07-23T09:34:32.403Z,89.09
2018-07-23T09:35:32.565Z,89.76
2018-07-23T09:36:32.424Z,89.66
2018-07-23T09:37:32.435Z,90.43
2018-07-23T09:38:32.448Z,89.86
2018-07-23T09:39:32.469Z,89.47
2018-07-23T09:40:32.612Z,89.47
2018-07-23T09:41:32.491Z,89.76
2018-07-23T09:42:32.497Z,89.76
2018-07-23T09:43:32.514Z,89.09
2018-07-23T09:44:32.524Z,89.66
2018-07-23T09:45:32.681Z,88.80
2018-07-23T09:46:32.548Z,88.99
2018-07-23T09:47:32.559Z,88.90
2018-07-23T09:48:32.577Z,89.09
2018-07-23T09:49:32.583Z,88.51
2018-07-23T09:50:32.747Z,88.32
2018-07-23T09:51:32.613Z,88.23
2018-07-23T09:52:32.624Z,88.32
2018-07-23T09:53:32.630Z,88.51
2018-07-23T09:54:32.650Z,88.61
2018-07-23T09:55:32.812Z,88.51
2018-07-23T09:56:32.671Z,88.42
2018-07-23T09:57:32.689Z,88.23
2018-07-23T09:58:32.704Z,88.23
2018-07-23T09:59:32.712Z,88.13
2018-07-23T10:00:32.870Z,87.94
2018-07-23T10:01:32.734Z,87.84
2018-07-23T10:02:32.953Z,87.55
2018-07-23T10:03:32.870Z,86.98
2018-07-23T10:04:32.973Z,86.69
2018-07-23T10:05:32.884Z,85.93
2018-07-23T10:06:32.800Z,86.02
2018-07-23T10:07:32.815Z,86.02
2018-07-23T10:08:32.821Z,85.64
2018-07-23T10:09:32.812Z,85.06
2018-07-23T10:10:32.993Z,85.06
2018-07-23T10:11:32.862Z,84.72
2018-07-23T10:12:32.875Z,84.20
2018-07-23T10:13:32.888Z,83.92
2018-07-23T10:14:32.896Z,83.34
2018-07-23T10:15:33.075Z,82.42
2018-07-23T10:16:32.920Z,82.38
2018-07-23T10:17:32.943Z,82.32
2018-07-23T10:18:32.946Z,82.04
2018-07-23T10:19:32.959Z,82.52
2018-07-23T10:20:33.280Z,82.14
2018-07-23T10:21:32.983Z,80.89
2018-07-23T10:22:32.999Z,80.32
2018-07-23T10:23:33.015Z,80.12
2018-07-23T10:24:33.024Z,80.47
2018-07-23T10:25:33.167Z,80.60
2018-07-23T10:26:33.052Z,80.70
2018-07-23T10:27:33.062Z,81.08
2018-07-23T10:28:33.074Z,80.70
2018-07-23T10:29:33.113Z,79.93
2018-07-23T10:30:33.349Z,79.83
2018-07-23T10:31:33.114Z,79.64
2018-07-23T10:32:33.126Z,79.74
2018-07-23T10:33:33.122Z,78.20
2018-07-23T10:34:33.150Z,77.73
2018-07-23T10:35:33.169Z,78.30
2018-07-23T10:36:33.327Z,77.92
2018-07-23T10:37:33.184Z,77.92
2018-07-23T10:38:33.200Z,77.92
2018-07-23T10:39:33.212Z,78.02
2018-07-23T10:40:33.226Z,77.82
2018-07-23T10:41:33.220Z,76.57
2018-07-23T10:42:33.405Z,76.86
2018-07-23T10:43:33.269Z,76.00
2018-07-23T10:44:33.281Z,75.81
2018-07-23T10:45:33.295Z,76.00
2018-07-23T10:46:33.283Z,76.62
2018-07-23T10:47:33.317Z,75.90
2018-07-23T10:48:33.480Z,74.98
2018-07-23T10:49:33.339Z,74.02
2018-07-23T10:50:33.352Z,73.99
2018-07-23T10:51:33.370Z,74.60
2018-07-23T10:52:33.382Z,74.02
2018-07-23T10:53:33.544Z,73.26
2018-07-23T10:54:33.411Z,72.59
2018-07-23T10:55:33.424Z,72.11
2018-07-23T10:56:33.434Z,72.39
2018-07-23T10:57:33.450Z,71.63
2018-07-23T10:58:33.560Z,70.96
2018-07-23T10:59:33.473Z,71.25
2018-07-23T11:00:33.468Z,71.05
2018-07-23T11:01:33.479Z,71.15
2018-07-23T11:02:33.511Z,70.38
2018-07-23T11:03:33.677Z,70.29
2018-07-23T11:04:33.538Z,70.19
2018-07-23T11:05:33.547Z,70.38
2018-07-23T11:06:33.577Z,70.00
2018-07-23T11:07:33.574Z,70.00
2018-07-23T11:08:33.693Z,69.81
2018-07-23T11:09:33.595Z,70.00
2018-07-23T11:10:33.620Z,70.76
2018-07-23T11:11:33.838Z,71.05
2018-07-23T11:12:33.649Z,71.25
2018-07-23T11:13:33.813Z,71.15
2018-07-23T11:14:33.676Z,71.34
2018-07-23T11:15:33.683Z,70.48
2018-07-23T11:16:33.704Z,70.96
2018-07-23T11:17:33.716Z,70.48
2018-07-23T11:18:33.873Z,70.76
2018-07-23T11:19:33.743Z,69.71
2018-07-23T11:20:33.760Z,69.71
2018-07-23T11:21:33.748Z,69.17
2018-07-23T11:22:33.783Z,69.26
2018-07-23T11:23:33.893Z,68.59
2018-07-23T11:24:33.819Z,67.92
2018-07-23T11:25:41.038Z,65.33
2018-07-23T11:26:33.847Z,65.14
2018-07-23T11:27:33.851Z,64.37
2018-07-23T11:28:33.957Z,65.23
2018-07-23T11:29:33.886Z,64.66
2018-07-23T11:30:33.893Z,64.95
2018-07-23T11:31:33.908Z,65.33
2018-07-23T11:32:33.920Z,65.23
2018-07-23T11:33:34.079Z,64.28
2018-07-23T11:34:33.946Z,64.66
2018-07-23T11:35:33.961Z,64.85
2018-07-23T11:36:33.964Z,64.18
2018-07-23T11:37:33.982Z,63.42
2018-07-23T11:38:34.252Z,61.88
2018-07-23T11:39:34.051Z,61.59
2018-07-23T11:40:34.013Z,61.69
2018-07-23T11:41:34.077Z,61.72
2018-07-23T11:42:34.059Z,61.21
2018-07-23T11:43:34.224Z,61.21
2018-07-23T11:44:34.075Z,61.14
2018-07-23T11:45:34.140Z,60.47
2018-07-23T11:46:34.119Z,60.38
2018-07-23T11:47:34.129Z,59.80
2018-07-23T11:48:34.246Z,60.08
2018-07-23T11:49:34.159Z,60.28
2018-07-23T11:50:34.171Z,60.08
2018-07-23T11:51:34.181Z,60.28
2018-07-23T11:52:34.199Z,60.57
2018-07-23T11:53:34.449Z,59.61
2018-07-23T11:54:34.232Z,60.18
2018-07-23T11:55:34.251Z,59.03
2018-07-23T11:56:34.262Z,58.84
2018-07-23T11:57:34.275Z,57.23
2018-07-23T11:58:34.270Z,56.95
2018-07-23T11:59:34.411Z,56.66
2018-07-23T12:00:34.300Z,56.37
2018-07-23T12:01:34.317Z,55.51
2018-07-23T12:02:34.335Z,54.86
2018-07-23T12:03:34.366Z,54.19
2018-07-23T12:04:34.764Z,53.32
2018-07-23T12:05:34.463Z,54.28
2018-07-23T12:06:34.415Z,53.13
2018-07-23T12:07:34.428Z,52.36
2018-07-23T12:08:34.448Z,52.65
2018-07-23T12:09:34.606Z,51.69
2018-07-23T12:10:34.471Z,52.46
2018-07-23T12:11:34.489Z,52.36
2018-07-23T12:12:34.503Z,52.55
2018-07-23T12:13:34.521Z,52.26
2018-07-23T12:14:34.685Z,52.46
2018-07-23T12:15:34.535Z,52.84
2018-07-23T12:16:34.565Z,53.23
2018-07-23T12:17:34.601Z,53.80
2018-07-23T12:18:34.596Z,53.90
2018-07-23T12:19:34.862Z,54.28
2018-07-23T12:20:34.629Z,54.19
2018-07-23T12:21:34.715Z,53.52
2018-07-23T12:22:34.658Z,53.23
2018-07-23T12:23:34.660Z,52.97
2018-07-23T12:24:34.819Z,52.00
2018-07-23T12:25:34.704Z,51.23
2018-07-23T12:26:34.726Z,50.37
2018-07-23T12:27:34.740Z,49.69
2018-07-23T12:28:34.757Z,49.05
2018-07-23T12:29:34.872Z,47.80
2018-07-23T12:30:34.788Z,47.70
2018-07-23T12:31:34.807Z,47.61
2018-07-23T12:32:34.821Z,47.61
2018-07-23T12:33:34.835Z,47.05
2018-07-23T12:34:34.959Z,45.99
2018-07-23T12:35:34.872Z,46.09
2018-07-23T12:36:34.870Z,45.80
2018-07-23T12:37:34.905Z,45.32
2018-07-23T12:38:34.918Z,45.22
2018-07-23T12:39:35.065Z,45.03
2018-07-23T12:40:34.961Z,43.99
2018-07-23T12:41:34.974Z,43.32
2018-07-23T12:42:34.994Z,42.76
2018-07-23T12:43:35.007Z,41.89
2018-07-23T12:44:35.160Z,41.03
2018-07-23T12:45:35.049Z,41.13
2018-07-23T12:46:35.071Z,40.55
2018-07-23T12:47:35.084Z,40.55
2018-07-23T12:48:35.100Z,40.64
2018-07-23T12:49:35.201Z,41.03
2018-07-23T12:50:35.141Z,40.76
2018-07-23T12:51:35.157Z,40.66
2018-07-23T12:52:35.233Z,39.22